Time;durP1;ratioP1;P1;durP2;ratioP2;P2;SDS_P1;SDS_P2;PMS_P1;PMS_P2;Temp;Humidity;BMP_temperature;BMP_pressure;BME280_temperature;BME280_humidity;BME280_pressure;Samples;Min_cycle;Max_cycle;Signal;HPM_P1;HPM_P2
2022/08/27 00:16:05;;;;;;;6.18;1.35;;;;;;;;;;6245411;22;20105;-90
2022/08/27 00:25:28;;;;;;;;;;;;;;;;;;;;;
2022/08/27 00:28:43;;;;;;;9.27;1.75;;;;;;;;;;6204262;23;20023;-89
2022/08/27 00:46:10;;;;;;;7.65;1.50;;;;;;;;;;6241727;22;20103;-87
2022/08/27 00:48:43;;;;;;;8.75;1.55;;;;;;;;;;6191721;23;20023;-86
2022/08/27 00:51:09;;;;;;;8.25;1.85;;;;;;;;;;6192288;23;20421;-86
2022/08/27 00:53:35;;;;;;;7.47;2.17;;;;;;;;;;6189807;23;20028;-88
2022/08/27 01:26:15;;;;;;;8.05;1.90;;;;;;;;;;6249885;22;20035;-87
2022/08/27 01:28:41;;;;;;;11.38;2.38;;;;;;;;;;6170908;23;20032;-88
2022/08/27 01:31:14;;;;;;;10.48;2.40;;;;;;;;;;6222176;23;20475;-86
2022/08/27 01:33:40;;;;;;;6.03;1.70;;;;;;;;;;6196443;23;20103;-87
2022/08/27 01:36:07;;;;;;;8.60;2.00;;;;;;;;;;6222637;23;20020;-87
2022/08/27 01:41:12;;;;;;;7.40;2.10;;;;;;;;;;6195948;22;20043;-87
2022/08/27 01:49:02;;;;;;;8.82;1.80;;;;;;;;;;6238122;22;20024;-89
2022/08/27 01:51:31;;;;;;;15.88;2.13;;;;;;;;;;6198881;23;20034;-88
2022/08/27 01:54:16;;;;;;;12.82;2.17;;;;;;;;;;6203255;23;20332;-89
2022/08/27 01:56:42;;;;;;;17.00;2.03;;;;;;;;;;6224108;23;20027;-89
2022/08/27 01:59:11;;;;;;;9.70;2.00;;;;;;;;;;6233782;23;20019;-89
2022/08/27 02:01:38;;;;;;;6.07;1.92;;;;;;;;;;6237031;22;20022;-89
2022/08/27 02:04:04;;;;;;;8.77;1.63;;;;;;;;;;6205455;23;20016;-89
2022/08/27 02:06:39;;;;;;;8.57;2.00;;;;;;;;;;6226699;23;20016;-87
2022/08/27 02:09:05;;;;;;;7.50;1.73;;;;;;;;;;6198424;23;20020;-87
2022/08/27 02:11:34;;;;;;;9.13;1.60;;;;;;;;;;6174826;23;20303;-88
2022/08/27 02:14:10;;;;;;;7.35;2.22;;;;;;;;;;6184777;23;20482;31
2022/08/27 02:16:36;;;;;;;11.38;2.20;;;;;;;;;;6107121;23;20055;-89
2022/08/27 02:19:03;;;;;;;6.05;1.60;;;;;;;;;;6110505;23;20017;-88
2022/08/27 02:21:30;;;;;;;6.55;1.80;;;;;;;;;;6109304;23;20040;-89
2022/08/27 02:23:56;;;;;;;6.88;2.20;;;;;;;;;;6109723;23;20053;-89
2022/08/27 02:26:22;;;;;;;7.40;2.30;;;;;;;;;;6159796;23;20025;-89
2022/08/27 02:28:48;;;;;;;10.65;1.67;;;;;;;;;;6109740;23;20423;-88
2022/08/27 02:31:16;;;;;;;10.75;1.85;;;;;;;;;;6108820;23;20028;-89
2022/08/27 02:33:45;;;;;;;7.35;2.25;;;;;;;;;;6106270;23;20029;-87
2022/08/27 02:36:12;;;;;;;11.68;2.20;;;;;;;;;;6105729;23;20462;-87
2022/08/27 02:38:38;;;;;;;11.63;2.15;;;;;;;;;;6155530;23;20426;-85
2022/08/27 02:41:04;;;;;;;7.20;2.05;;;;;;;;;;6104845;23;20029;-86
2022/08/27 02:43:30;;;;;;;5.40;1.95;;;;;;;;;;6109716;23;20036;-88
2022/08/27 02:46:18;;;;;;;7.45;1.60;;;;;;;;;;6159807;23;20018;-87
2022/08/27 02:48:45;;;;;;;8.25;1.65;;;;;;;;;;6130505;23;20029;-87
2022/08/27 02:51:11;;;;;;;6.25;1.83;;;;;;;;;;6129939;23;20789;-86
2022/08/27 02:53:48;;;;;;;6.55;1.83;;;;;;;;;;6156380;23;20025;-87
2022/08/27 02:56:14;;;;;;;8.18;2.08;;;;;;;;;;6133129;23;20455;-87
2022/08/27 02:58:44;;;;;;;7.75;2.03;;;;;;;;;;6149027;23;20510;-88
2022/08/27 03:01:10;;;;;;;6.50;1.73;;;;;;;;;;6193294;23;20035;-87
2022/08/27 03:03:37;;;;;;;6.30;2.17;;;;;;;;;;6196257;23;20039;-87
2022/08/27 03:06:03;;;;;;;9.70;1.85;;;;;;;;;;6195206;23;20051;-87
2022/08/27 03:08:55;;;;;;;6.68;1.52;;;17.20;99.90;;;;;;6195573;22;20032;-87
2022/08/27 03:27:42;;;;;;;9.13;1.70;;;;;;;;;;6248781;23;20023;-87
2022/08/27 03:30:11;;;;;;;6.72;2.20;;;;;;;;;;6197736;23;20039;-88
2022/08/27 03:32:37;;;;;;;4.72;1.58;;;;;;;;;;6197811;23;20020;-87
2022/08/27 03:35:07;;;;;;;4.15;1.65;;;;;;;;;;6248033;23;20103;-87
2022/08/27 03:44:29;;;;;;;8.13;2.22;;;;;;;;;;6247365;22;20111;-87
2022/08/27 03:47:10;;;;;;;11.95;2.53;;;;;;;;;;6218652;23;20043;-88
2022/08/27 03:49:36;;;;;;;6.93;1.90;;;;;;;;;;6092424;23;20097;-86
2022/08/27 03:52:29;;;;;;;7.72;1.85;;;16.30;99.90;;;;;;6093095;23;20034;-86
2022/08/27 03:55:05;;;;;;;8.43;1.90;;;;;;;;;;6070284;23;20033;-85
2022/08/27 04:00:32;;;;;;;8.98;2.30;;;;;;;;;;6216897;23;20112;-86
2022/08/27 04:02:58;;;;;;;10.93;1.98;;;;;;;;;;6166687;23;20020;-87
2022/08/27 04:05:24;;;;;;;6.38;1.95;;;;;;;;;;6167048;23;20031;-87
2022/08/27 04:07:54;;;;;;;14.45;2.30;;;;;;;;;;6144014;23;20333;-88
2022/08/27 04:10:21;;;;;;;11.82;2.35;;;;;;;;;;6217573;23;20020;-87
2022/08/27 04:15:22;;;;;;;10.13;2.05;;;;;;;;;;6234107;22;20028;-87
2022/08/27 04:17:49;;;;;;;5.07;1.60;;;;;;;;;;6247972;23;20088;-87
2022/08/27 04:20:15;;;;;;;10.23;1.98;;;;;;;;;;6249265;23;20027;-87
2022/08/27 04:22:41;;;;;;;3.88;2.03;;;;;;;;;;6196789;23;20082;-87
2022/08/27 04:25:08;;;;;;;8.23;1.60;;;;;;;;;;6223645;23;20574;-87
2022/08/27 04:31:01;;;;;;;8.07;2.08;;;;;;;;;;6222882;23;20028;-88
2022/08/27 04:33:27;;;;;;;16.58;2.45;;;;;;;;;;6196531;23;20024;-87
2022/08/27 04:35:57;;;;;;;7.00;1.80;;;;;;;;;;6249657;23;20461;-87
2022/08/27 04:38:23;;;;;;;11.30;2.00;;;;;;;;;;6196880;23;20031;-87
2022/08/27 04:43:34;;;;;;;8.80;1.58;;;;;;;;;;6250469;23;20024;-88
2022/08/27 04:46:12;;;;;;;7.50;2.45;;;;;;;;;;6248874;23;20097;-89
2022/08/27 04:48:38;;;;;;;8.85;1.95;;;;;;;;;;6197336;23;20047;-86
2022/08/27 04:51:05;;;;;;;7.28;1.70;;;;;;;;;;6196458;23;20013;-87
2022/08/27 04:56:36;;;;;;;8.98;1.88;;;;;;;;;;6247686;22;20051;-88
2022/08/27 04:59:07;;;;;;;9.88;1.90;;;;;;;;;;6196730;23;20046;-86
2022/08/27 05:01:33;;;;;;;7.57;2.08;;;;;;;;;;6223006;23;20047;-86
2022/08/27 05:03:59;;;;;;;7.88;2.08;;;;;;;;;;6174324;23;20134;-86
2022/08/27 05:06:26;;;;;;;7.70;2.20;;;;;;;;;;6174153;23;20024;-87
2022/08/27 05:08:53;;;;;;;6.07;1.73;;;;;;;;;;6202858;23;20102;-86
2022/08/27 05:11:19;;;;;;;8.25;1.88;;;;;;;;;;6230059;23;20028;-88
2022/08/27 05:13:46;;;;;;;7.18;1.85;;;;;;;;;;6208128;23;20215;-88
2022/08/27 05:18:49;;;;;;;7.97;2.17;;;;;;;;;;6251704;22;20020;-88
2022/08/27 05:21:18;;;;;;;7.13;1.80;;;;;;;;;;6203496;23;20043;-87
2022/08/27 05:24:06;;;;;;;5.18;1.65;;;;;;;;;;6198477;23;20092;-88
2022/08/27 05:26:33;;;;;;;6.80;1.80;;;;;;;;;;6248081;23;20051;-87
2022/08/27 05:29:00;;;;;;;3.90;1.50;;;;;;;;;;6197562;23;20089;-87
2022/08/27 05:31:27;;;;;;;7.53;1.95;;;;;;;;;;6196164;23;20043;-87
2022/08/27 05:33:55;;;;;;;6.35;1.80;;;;;;;;;;6196646;23;20024;-88
2022/08/27 05:36:33;;;;;;;9.50;1.70;;;;;;;;;;6198147;23;20341;-87
2022/08/27 05:39:01;;;;;;;8.90;2.05;;;;;;;;;;6222226;23;20027;-87
2022/08/27 05:41:29;;;;;;;4.47;1.60;;;;;;;;;;6198018;23;20059;-87
2022/08/27 05:43:56;;;;;;;10.23;2.00;;;;;;;;;;6221158;23;20064;-88
2022/08/27 05:46:23;;;;;;;6.38;1.70;;;;;;;;;;6197234;23;20020;-88
2022/08/27 05:49:11;;;;;;;8.50;1.70;;;;;;;;;;6197261;23;20016;-89
2022/08/27 05:51:40;;;;;;;7.25;1.60;;;;;;;;;;6225596;23;20035;-90
2022/08/27 05:54:17;;;;;;;8.95;2.00;;;;;;;;;;6220681;23;20016;-86
2022/08/27 05:56:56;;;;;;;7.03;1.65;;;;;;;;;;6220484;23;20016;-86
2022/08/27 06:02:07;;;;;;;7.25;1.75;;;;;;;;;;6202039;23;20028;-88
2022/08/27 06:04:33;;;;;;;6.93;1.75;;;;;;;;;;6225135;23;20020;-87
2022/08/27 06:07:00;;;;;;;19.80;2.03;;;;;;;;;;6220876;23;20123;-85
2022/08/27 06:09:28;;;;;;;7.05;1.63;;;;;;;;;;6223027;23;20020;-86
2022/08/27 06:11:54;;;;;;;9.88;2.00;;;;;;;;;;6197168;22;20020;-86
2022/08/27 06:19:33;;;;;;;11.63;2.20;;;;;;;;;;6253119;22;20379;-88
2022/08/27 06:22:02;;;;;;;10.30;1.80;;;;;;;;;;6226222;22;20016;-87
2022/08/27 06:25:12;;;;;;;8.93;1.80;;;;;;;;;;6200925;23;20024;-88
2022/08/27 06:27:39;;;;;;;10.93;2.13;;;;;;;;;;6200951;23;20020;-87
2022/08/27 06:30:17;;;;;;;11.10;2.03;;;;;;;;;;6199414;23;20020;-87
2022/08/27 06:32:43;;;;;;;8.45;1.63;;;;;;;;;;6223394;23;20095;-86
2022/08/27 06:35:09;;;;;;;9.90;2.00;;;;;;;;;;6222190;23;20126;-86
2022/08/27 06:37:35;;;;;;;7.72;2.13;;;;;;;;;;6172875;23;20018;-86
2022/08/27 06:40:01;;;;;;;6.95;1.55;;;;;;;;;;6197246;23;20392;-86
2022/08/27 06:42:28;;;;;;;8.55;1.95;;;;;;;;;;6249725;23;20016;-86
2022/08/27 06:44:54;;;;;;;7.07;1.40;;;;;;;;;;6196478;23;20020;-86
2022/08/27 06:47:23;;;;;;;6.60;1.70;;;;;;;;;;6223518;23;20020;-88
2022/08/27 06:50:08;;;;;;;8.50;2.30;;;;;;;;;;6175073;22;20107;-86
2022/08/27 06:55:51;;;;;;;11.95;2.78;;;;;;;;;;6218964;23;20020;-86
2022/08/27 06:58:18;;;;;;;10.45;1.75;;;;;;;;;;6222372;23;20020;-86
2022/08/27 07:00:44;;;;;;;7.28;1.52;;;;;;;;;;6222313;23;20020;-86
2022/08/27 07:03:11;;;;;;;10.95;2.20;;;;;;;;;;6247905;23;20416;-86
2022/08/27 07:05:40;;;;;;;10.63;2.50;;;;;;;;;;6222837;23;20507;-86
2022/08/27 07:08:07;;;;;;;12.60;2.08;;;;;;;;;;6224167;23;20011;-86
2022/08/27 07:10:33;;;;;;;3.92;1.58;;;;;;;;;;6173205;23;20016;-85
2022/08/27 07:13:00;;;;;;;11.05;1.90;;;;;;;;;;6197465;23;20681;-86
2022/08/27 07:15:26;;;;;;;9.70;1.80;;;;;;;;;;6198477;23;20019;-87
2022/08/27 07:17:52;;;;;;;8.45;2.10;;;;;;;;;;6221987;23;20020;-89
2022/08/27 07:22:45;;;;;;;8.02;1.85;;;;;;;;;;6254491;22;20020;-91
2022/08/27 07:25:17;;;;;;;8.32;1.90;;;;;;;;;;6200907;23;20020;-91
2022/08/27 07:27:43;;;;;;;9.77;2.42;;;;;;;;;;6227243;23;20352;-91
2022/08/27 07:33:03;;;;;;;7.85;1.92;;;;;;;;;;6251344;22;20024;-90
2022/08/27 07:35:32;;;;;;;8.27;2.03;;;;;;;;;;6197116;23;20381;-89
2022/08/27 07:38:18;;;;;;;7.47;1.83;;;;;;;;;;6226066;23;20024;-87
2022/08/27 07:40:44;;;;;;;15.40;2.47;;;;;;;;;;6198053;23;20322;-88
2022/08/27 07:46:02;;;;;;;8.85;1.95;;;;;;;;;;6226215;23;20059;-90
2022/08/27 07:51:57;;;;;;;11.00;1.80;;;;;;;;;;6226114;23;20099;-91
2022/08/27 07:54:23;;;;;;;10.30;1.85;;;;;;;;;;6226108;23;20070;-88
2022/08/27 07:56:49;;;;;;;8.35;1.60;;;;;;;;;;6225560;23;20035;-92
2022/08/27 07:59:16;;;;;;;7.78;1.48;;;;;;;;;;6226409;23;20134;-91
2022/08/27 08:01:42;;;;;;;8.63;1.60;;;;;;;;;;6254218;22;20076;-91
2022/08/27 08:04:08;;;;;;;7.25;2.35;;;;;;;;;;6251623;23;20016;-91
2022/08/27 08:06:36;;;;;;;7.60;2.22;;;;;;;;;;6200736;23;20050;-89
2022/08/27 08:09:02;;;;;;;12.18;2.28;;;;;;;;;;6223547;23;20028;-87
2022/08/27 08:11:28;;;;;;;11.30;2.15;;;;;;;;;;6200270;22;20024;-91
2022/08/27 08:13:54;;;;;;;7.95;1.58;;;;;;;;;;6194562;23;20365;-89
2022/08/27 08:16:23;;;;;;;9.52;1.85;;;;;;;;;;6170537;23;20012;-92
2022/08/27 08:18:49;;;;;;;10.98;2.15;;;;;;;;;;6196616;23;20068;-90
2022/08/27 08:21:15;;;;;;;12.73;2.60;;;;;;;;;;6199083;23;20020;-84
2022/08/27 08:23:41;;;;;;;11.57;2.00;;;;;;;;;;6228890;22;20031;-85
2022/08/27 08:26:08;;;;;;;12.52;2.65;;;;;;;;;;6245931;23;20016;-86
2022/08/27 08:31:55;;;;;;;9.65;2.05;;;;;;;;;;6238431;22;20027;-87
2022/08/27 08:34:21;;;;;;;11.43;2.15;;;;;;;;;;6231967;23;20106;-86
2022/08/27 08:36:48;;;;;;;11.32;2.25;;;;;;;;;;6235740;22;20014;-87
2022/08/27 08:49:53;;;;;;;12.60;2.35;;;;;;;;;;6252199;23;20043;-91
2022/08/27 08:52:38;;;;;;;8.25;2.15;;;;;;;;;;6200589;23;20012;-89
2022/08/27 08:55:10;;;;;;;18.20;3.20;;;;;;;;;;6252114;23;20027;-90
2022/08/27 08:57:40;;;;;;;12.95;2.10;;;;;;;;;;6251634;23;20043;-90
2022/08/27 09:00:11;;;;;;;8.20;1.83;;;;;;;;;;6221656;23;20013;-87
2022/08/27 09:02:49;;;;;;;9.02;1.90;;;;;;;;;;6218566;23;20051;-88
2022/08/27 09:09:03;;;;;;;7.15;1.67;;;;;;;;;;6241908;22;20046;-91
2022/08/27 09:11:39;;;;;;;8.57;2.53;;;;;;;;;;6199543;23;20104;-91
2022/08/27 09:17:17;;;;;;;9.02;1.70;;;;;;;;;;6253279;22;20092;-91
2022/08/27 09:19:43;;;;;;;9.88;1.83;;;;;;;;;;6199218;23;20051;-89
2022/08/27 09:25:08;;;;;;;6.15;1.83;;;;;;;;;;6252167;22;20024;-88
2022/08/27 09:27:35;;;;;;;9.68;1.60;;;;;;;;;;6224576;23;20353;-88
2022/08/27 09:30:06;;;;;;;8.60;1.50;;;;;;;;;;6224413;23;20012;-88
2022/08/27 09:32:55;;;;;;;8.43;1.50;;;;;;;;;;6225263;23;20016;-91
2022/08/27 09:35:21;;;;;;;14.88;2.28;;;;;;;;;;6226312;23;20020;-86
2022/08/27 09:44:57;;;;;;;8.25;1.60;;;;;;;;;;6240868;23;20035;-90
2022/08/27 09:47:24;;;;;;;8.73;1.90;;;;;;;;;;6227698;23;20016;-89
2022/08/27 10:14:48;;;;;;;7.28;1.73;;;;;;;;;;6255899;23;20070;-91
2022/08/27 10:17:25;;;;;;;9.55;1.92;;;;;;;;;;6202428;23;20043;-92
2022/08/27 10:37:09;;;;;;;8.85;1.80;;;;;;;;;;6228946;22;19927;-85
2022/08/27 10:46:36;;;;;;;12.23;1.60;;;;;;;;;;6249441;23;20051;-87
2022/08/27 10:49:05;;;;;;;7.38;1.40;;;;;;;;;;6248757;23;20039;-89
2022/08/27 11:11:19;;;;;;;8.43;1.40;;;;;;;;;;6244860;22;20097;-87
2022/08/27 11:13:47;;;;;;;7.43;1.40;;;;;;;;;;6193547;23;20031;-86
2022/08/27 11:16:25;;;;;;;7.43;1.40;;;;;;;;;;6197144;23;20102;-91
2022/08/27 11:19:00;;;;;;;8.43;1.70;;;;;;;;;;6195659;23;20022;-90
2022/08/27 12:07:00;;;;;;;8.27;1.88;;;;;;;;;;6251475;22;20679;-90
2022/08/27 12:09:26;;;;;;;9.68;1.58;;;;;;;;;;6194061;23;20440;-90
2022/08/27 12:27:21;;;;;;;5.15;1.52;;;;;;;;;;6232463;22;20055;-90
2022/08/27 12:36:25;;;;;;;9.40;1.50;;;;;;;;;;6250616;22;20035;-87
2022/08/27 12:38:57;;;;;;;4.40;1.40;;;;;;;;;;6223553;23;20023;-89
2022/08/27 12:50:29;;;;;;;10.73;1.55;;;;;;;;;;6177044;22;20031;-87
2022/08/27 12:53:23;;;;;;;9.60;1.80;;;;;;;;;;6169815;23;20096;-87
2022/08/27 13:09:43;;;;;;;9.18;1.60;;;22.30;99.90;;;;;;6160261;23;20033;-87
2022/08/27 13:12:18;;;;;;;10.27;1.40;;;;;;;;;;6100819;22;20065;-88
2022/08/27 13:14:45;;;;;;;9.27;1.90;;;;;;;;;;6201774;23;20092;-88
2022/08/27 13:23:22;;;;;;;9.65;1.83;;;;;;;;;;6241655;22;20035;-87
2022/08/27 13:25:59;;;;;;;6.57;1.35;;;;;;;;;;6221084;23;20020;-89
2022/08/27 13:28:27;;;;;;;9.15;1.85;;;;;;;;;;6221992;23;20028;-87
2022/08/27 13:30:53;;;;;;;5.75;1.42;;;;;;;;;;6169861;23;20021;-87
2022/08/27 13:36:08;;;;;;;4.75;1.60;;;;;;;;;;6249167;22;20024;-88
2022/08/27 13:38:37;;;;;;;7.35;1.65;;;;;;;;;;6196517;23;20024;-88
2022/08/27 13:41:08;;;;;;;4.35;1.30;;;;;;;;;;6199909;23;20066;-89
2022/08/27 13:43:36;;;;;;;7.32;1.77;;;;;;;;;;6223341;23;20087;-86
2022/08/27 13:52:28;;;;;;;5.38;1.75;;;;;;;;;;6164509;23;20027;-87
2022/08/27 13:55:04;;;;;;;7.40;1.40;;;;;;;;;;6163216;23;20025;-88
2022/08/27 14:06:01;;;;;;;5.57;1.45;;;;;;;;;;6251352;23;20886;-87
2022/08/27 14:08:28;;;;;;;15.52;2.35;;;;;;;;;;6199253;23;20056;-87
2022/08/27 14:20:47;;;;;;;10.57;2.28;;;;;;;;;;6251027;23;20154;-88
2022/08/27 14:23:13;;;;;;;6.75;1.40;;;;;;;;;;6199096;23;20119;-86
2022/08/27 14:32:06;;;;;;;6.53;1.70;;;;;;;;;;6213332;22;20032;-88
2022/08/27 14:37:34;;;;;;;4.78;1.38;;;;;;;;;;6248987;22;20031;-87
2022/08/27 14:40:00;;;;;;;9.43;1.60;;;;;;;;;;6223482;23;20456;-87
2022/08/27 14:58:17;;;;;;;10.95;2.50;;;;;;;;;;6218133;22;20028;-89
2022/08/27 15:00:43;;;;;;;9.30;2.42;;;;;;;;;;6177764;23;20052;-89
2022/08/27 15:06:25;;;;;;;7.22;2.20;;;;;;;;;;6249810;22;20039;-88
2022/08/27 15:08:55;;;;;;;12.48;2.92;;;;;;;;;;6199752;23;20345;-88
2022/08/27 15:17:11;;;;;;;8.75;2.90;;;;;;;;;;6252545;22;20108;-87
2022/08/27 15:20:08;;;;;;;10.82;2.90;;;;;;;;;;6221301;23;20046;-88
2022/08/27 16:02:46;;;;;;;13.27;4.95;;;;;;;;;;6251221;22;20267;31
2022/08/27 16:16:16;;;;;;;10.70;5.05;;;;;;;;;;6240215;22;20028;-88
2022/08/27 16:18:43;;;;;;;12.98;5.18;;;;;;;;;;6197667;23;20455;-90
2022/08/27 16:24:21;;;;;;;14.45;5.05;;;;;;;;;;6248878;22;20035;-89
2022/08/27 16:30:40;;;;;;;14.98;4.60;;;;;;;;;;6190564;22;20158;31
2022/08/27 16:47:09;;;;;;;9.52;4.00;;;;;;;;;;6203451;22;20028;31
2022/08/27 17:39:01;;;;;;;12.52;5.22;;;;;;;;;;6223004;23;20059;-88
2022/08/27 18:32:04;;;;;;;;;;;;;;;;;;6219512;23;20936;-87
2022/08/27 18:34:32;;;;;;;13.70;4.10;;;;;;;;;;6218329;23;19923;-86
2022/08/27 18:47:19;;;;;;;13.32;4.15;;;;;;;;;;6220513;23;20055;-85
2022/08/27 19:00:00;;;;;;;18.48;4.03;;;;;;;;;;6192434;23;20058;-88
2022/08/27 19:02:26;;;;;;;10.27;3.83;;;;;;;;;;6171103;23;20060;-89
2022/08/27 19:42:30;;;;;;;13.48;2.75;;;;;;;;;;6232104;22;20035;-84
2022/08/27 19:50:58;;;;;;;8.98;3.00;;;;;;;;;;6244809;22;20058;-84
2022/08/27 19:53:24;;;;;;;8.95;2.70;;;;;;;;;;6192732;23;20031;-87
2022/08/27 20:35:19;;;;;;;9.95;2.55;;;;;;;;;;6224534;22;1624770;-88
2022/08/27 21:00:17;;;;;;;8.95;2.65;;;;;;;;;;6346605;22;20041;-87
2022/08/27 21:00:24;;;;;;;8.88;2.40;;;;;;;;;;6326941;22;20025;-87
2022/08/27 21:59:09;;;;;;;9.00;3.10;;;;;;;;;;6308577;22;20030;-88
2022/08/27 22:02:13;;;;;;;18.15;4.45;;;;;;;;;;6257906;22;20507;-88
2022/08/27 22:20:44;;;;;;;15.70;2.92;;;;;;;;;;6388901;22;20032;-85
2022/08/27 22:23:11;;;;;;;10.10;2.90;;;;;;;;;;6321224;22;20018;-87
2022/08/27 22:42:32;;;;;;;12.52;2.78;;;;;;;;;;6291766;22;20026;-86
2022/08/27 22:44:58;;;;;;;14.80;3.08;;;;;;;;;;6314050;22;20029;-86
2022/08/27 23:32:49;;;;;;;13.00;3.63;;;;;;;;;;6369112;22;20069;-86
2022/08/27 23:35:15;;;;;;;11.07;2.92;;;;;;;;;;6311355;22;20071;-85
